sensor_id;sensor_type;location;lat;lon;timestamp;P1;durP1;ratioP1;P2;durP2;ratioP2
69008;SDS011;56065;52.472;13.380;2024-03-08T00:01:09;25.80;;;9.20;;
69008;SDS011;56065;52.472;13.380;2024-03-08T00:03:34;25.30;;;9.70;;
69008;SDS011;56065;52.472;13.380;2024-03-08T00:05:59;27.47;;;10.40;;
69008;SDS011;56065;52.472;13.380;2024-03-08T00:08:25;41.53;;;11.37;;
69008;SDS011;56065;52.472;13.380;2024-03-08T00:10:50;32.07;;;12.13;;
69008;SDS011;56065;52.472;13.380;2024-03-08T00:13:16;30.58;;;11.25;;
69008;SDS011;56065;52.472;13.380;2024-03-08T00:15:41;30.03;;;10.67;;
69008;SDS011;56065;52.472;13.380;2024-03-08T00:18:06;27.80;;;9.93;;
69008;SDS011;56065;52.472;13.380;2024-03-08T00:20:31;33.63;;;13.40;;
69008;SDS011;56065;52.472;13.380;2024-03-08T00:22:57;27.23;;;11.00;;
69008;SDS011;56065;52.472;13.380;2024-03-08T00:25:23;26.50;;;10.32;;
69008;SDS011;56065;52.472;13.380;2024-03-08T00:27:48;26.27;;;10.00;;
69008;SDS011;56065;52.472;13.380;2024-03-08T00:30:20;25.50;;;10.05;;
69008;SDS011;56065;52.472;13.380;2024-03-08T00:32:47;24.80;;;9.88;;
69008;SDS011;56065;52.472;13.380;2024-03-08T00:35:13;26.80;;;10.10;;
69008;SDS011;56065;52.472;13.380;2024-03-08T00:37:39;24.23;;;9.35;;
69008;SDS011;56065;52.472;13.380;2024-03-08T00:40:05;22.93;;;9.57;;
69008;SDS011;56065;52.472;13.380;2024-03-08T00:42:31;23.95;;;8.98;;
69008;SDS011;56065;52.472;13.380;2024-03-08T00:44:58;25.67;;;10.52;;
69008;SDS011;56065;52.472;13.380;2024-03-08T00:47:23;27.67;;;10.47;;
69008;SDS011;56065;52.472;13.380;2024-03-08T00:49:49;25.40;;;9.77;;
69008;SDS011;56065;52.472;13.380;2024-03-08T00:52:14;22.97;;;9.97;;
69008;SDS011;56065;52.472;13.380;2024-03-08T00:54:39;24.00;;;9.23;;
69008;SDS011;56065;52.472;13.380;2024-03-08T00:57:05;22.08;;;9.50;;
69008;SDS011;56065;52.472;13.380;2024-03-08T00:59:31;26.90;;;9.75;;
69008;SDS011;56065;52.472;13.380;2024-03-08T01:01:57;22.02;;;8.85;;
69008;SDS011;56065;52.472;13.380;2024-03-08T01:04:24;27.88;;;10.48;;
69008;SDS011;56065;52.472;13.380;2024-03-08T01:06:50;25.90;;;10.75;;
69008;SDS011;56065;52.472;13.380;2024-03-08T01:09:16;28.20;;;9.53;;
69008;SDS011;56065;52.472;13.380;2024-03-08T01:11:42;22.13;;;8.48;;
69008;SDS011;56065;52.472;13.380;2024-03-08T01:14:07;26.53;;;8.73;;
69008;SDS011;56065;52.472;13.380;2024-03-08T01:16:33;26.40;;;10.23;;
69008;SDS011;56065;52.472;13.380;2024-03-08T01:18:58;25.47;;;8.93;;
69008;SDS011;56065;52.472;13.380;2024-03-08T01:21:23;23.75;;;8.75;;
69008;SDS011;56065;52.472;13.380;2024-03-08T01:23:49;25.50;;;8.80;;
69008;SDS011;56065;52.472;13.380;2024-03-08T01:26:14;23.83;;;9.27;;
69008;SDS011;56065;52.472;13.380;2024-03-08T01:28:40;27.70;;;10.60;;
69008;SDS011;56065;52.472;13.380;2024-03-08T01:31:05;25.60;;;9.97;;
69008;SDS011;56065;52.472;13.380;2024-03-08T01:33:30;27.30;;;10.52;;
69008;SDS011;56065;52.472;13.380;2024-03-08T01:35:56;25.25;;;9.82;;
69008;SDS011;56065;52.472;13.380;2024-03-08T01:38:22;31.70;;;10.63;;
69008;SDS011;56065;52.472;13.380;2024-03-08T01:40:47;25.67;;;9.18;;
69008;SDS011;56065;52.472;13.380;2024-03-08T01:43:25;25.37;;;9.30;;
69008;SDS011;56065;52.472;13.380;2024-03-08T01:45:54;24.58;;;9.32;;
69008;SDS011;56065;52.472;13.380;2024-03-08T01:48:22;30.30;;;10.00;;
69008;SDS011;56065;52.472;13.380;2024-03-08T01:50:49;21.90;;;8.73;;
69008;SDS011;56065;52.472;13.380;2024-03-08T01:53:15;25.58;;;9.15;;
69008;SDS011;56065;52.472;13.380;2024-03-08T01:55:42;24.92;;;10.20;;
69008;SDS011;56065;52.472;13.380;2024-03-08T01:58:11;27.17;;;9.57;;
69008;SDS011;56065;52.472;13.380;2024-03-08T02:00:40;25.92;;;9.82;;
69008;SDS011;56065;52.472;13.380;2024-03-08T02:03:08;28.02;;;9.25;;
69008;SDS011;56065;52.472;13.380;2024-03-08T02:05:34;24.87;;;8.67;;
69008;SDS011;56065;52.472;13.380;2024-03-08T02:08:00;25.98;;;10.05;;
69008;SDS011;56065;52.472;13.380;2024-03-08T02:10:26;27.80;;;9.37;;
69008;SDS011;56065;52.472;13.380;2024-03-08T02:12:51;24.73;;;9.60;;
69008;SDS011;56065;52.472;13.380;2024-03-08T02:15:16;24.20;;;9.02;;
69008;SDS011;56065;52.472;13.380;2024-03-08T02:17:42;27.77;;;9.67;;
69008;SDS011;56065;52.472;13.380;2024-03-08T02:20:08;24.57;;;8.70;;
69008;SDS011;56065;52.472;13.380;2024-03-08T02:22:35;26.70;;;9.95;;
69008;SDS011;56065;52.472;13.380;2024-03-08T02:25:02;29.13;;;9.98;;
69008;SDS011;56065;52.472;13.380;2024-03-08T02:27:28;27.92;;;9.35;;
69008;SDS011;56065;52.472;13.380;2024-03-08T02:29:55;26.77;;;9.55;;
69008;SDS011;56065;52.472;13.380;2024-03-08T02:32:21;25.20;;;10.07;;
69008;SDS011;56065;52.472;13.380;2024-03-08T02:34:47;24.15;;;9.25;;
69008;SDS011;56065;52.472;13.380;2024-03-08T02:37:13;25.37;;;9.83;;
69008;SDS011;56065;52.472;13.380;2024-03-08T02:39:38;24.83;;;9.80;;
69008;SDS011;56065;52.472;13.380;2024-03-08T02:42:03;23.75;;;8.88;;
69008;SDS011;56065;52.472;13.380;2024-03-08T02:44:29;25.30;;;9.50;;
69008;SDS011;56065;52.472;13.380;2024-03-08T02:46:54;25.23;;;9.00;;
69008;SDS011;56065;52.472;13.380;2024-03-08T02:49:20;28.40;;;9.77;;
69008;SDS011;56065;52.472;13.380;2024-03-08T02:51:45;27.25;;;8.63;;
69008;SDS011;56065;52.472;13.380;2024-03-08T02:54:11;26.43;;;10.03;;
69008;SDS011;56065;52.472;13.380;2024-03-08T02:56:36;28.10;;;10.57;;
69008;SDS011;56065;52.472;13.380;2024-03-08T02:59:02;29.03;;;9.77;;
69008;SDS011;56065;52.472;13.380;2024-03-08T03:01:27;25.90;;;10.00;;
69008;SDS011;56065;52.472;13.380;2024-03-08T03:03:53;28.37;;;9.40;;
69008;SDS011;56065;52.472;13.380;2024-03-08T03:06:18;25.13;;;9.47;;
69008;SDS011;56065;52.472;13.380;2024-03-08T03:08:46;25.98;;;9.82;;
69008;SDS011;56065;52.472;13.380;2024-03-08T03:11:11;26.38;;;10.35;;
69008;SDS011;56065;52.472;13.380;2024-03-08T03:13:38;23.98;;;9.40;;
69008;SDS011;56065;52.472;13.380;2024-03-08T03:16:04;24.37;;;9.77;;
69008;SDS011;56065;52.472;13.380;2024-03-08T03:18:29;29.33;;;9.82;;
69008;SDS011;56065;52.472;13.380;2024-03-08T03:20:55;27.80;;;10.07;;
69008;SDS011;56065;52.472;13.380;2024-03-08T03:23:21;27.02;;;10.35;;
69008;SDS011;56065;52.472;13.380;2024-03-08T03:25:46;29.63;;;10.43;;
69008;SDS011;56065;52.472;13.380;2024-03-08T03:28:11;26.43;;;10.37;;
69008;SDS011;56065;52.472;13.380;2024-03-08T03:30:42;26.08;;;10.15;;
69008;SDS011;56065;52.472;13.380;2024-03-08T03:33:08;28.20;;;10.23;;
69008;SDS011;56065;52.472;13.380;2024-03-08T03:35:34;29.17;;;9.93;;
69008;SDS011;56065;52.472;13.380;2024-03-08T03:38:01;30.52;;;11.15;;
69008;SDS011;56065;52.472;13.380;2024-03-08T03:40:27;29.52;;;11.65;;
69008;SDS011;56065;52.472;13.380;2024-03-08T03:42:53;28.88;;;10.45;;
69008;SDS011;56065;52.472;13.380;2024-03-08T03:45:19;25.67;;;9.80;;
69008;SDS011;56065;52.472;13.380;2024-03-08T03:47:45;32.63;;;11.40;;
69008;SDS011;56065;52.472;13.380;2024-03-08T03:50:10;29.70;;;10.88;;
69008;SDS011;56065;52.472;13.380;2024-03-08T03:52:36;28.13;;;10.57;;
69008;SDS011;56065;52.472;13.380;2024-03-08T03:55:01;31.17;;;11.37;;
69008;SDS011;56065;52.472;13.380;2024-03-08T03:57:26;28.70;;;10.73;;
69008;SDS011;56065;52.472;13.380;2024-03-08T03:59:52;28.07;;;11.03;;
69008;SDS011;56065;52.472;13.380;2024-03-08T04:02:17;31.88;;;11.82;;
69008;SDS011;56065;52.472;13.380;2024-03-08T04:04:42;35.43;;;11.97;;
69008;SDS011;56065;52.472;13.380;2024-03-08T04:07:28;32.00;;;12.50;;
69008;SDS011;56065;52.472;13.380;2024-03-08T04:09:53;33.63;;;12.37;;
69008;SDS011;56065;52.472;13.380;2024-03-08T04:12:19;35.90;;;11.70;;
69008;SDS011;56065;52.472;13.380;2024-03-08T04:14:44;29.00;;;10.83;;
69008;SDS011;56065;52.472;13.380;2024-03-08T04:17:09;33.13;;;12.13;;
69008;SDS011;56065;52.472;13.380;2024-03-08T04:19:36;34.28;;;11.75;;
69008;SDS011;56065;52.472;13.380;2024-03-08T04:22:02;28.50;;;11.67;;
69008;SDS011;56065;52.472;13.380;2024-03-08T04:24:27;34.30;;;12.17;;
69008;SDS011;56065;52.472;13.380;2024-03-08T04:26:52;32.90;;;12.23;;
69008;SDS011;56065;52.472;13.380;2024-03-08T04:29:18;37.73;;;12.13;;
69008;SDS011;56065;52.472;13.380;2024-03-08T04:31:44;30.53;;;11.40;;
69008;SDS011;56065;52.472;13.380;2024-03-08T04:34:09;32.35;;;11.63;;
69008;SDS011;56065;52.472;13.380;2024-03-08T04:36:35;32.80;;;12.10;;
69008;SDS011;56065;52.472;13.380;2024-03-08T04:39:00;26.97;;;12.00;;
69008;SDS011;56065;52.472;13.380;2024-03-08T04:41:25;34.00;;;12.10;;
69008;SDS011;56065;52.472;13.380;2024-03-08T04:43:51;31.33;;;12.27;;
69008;SDS011;56065;52.472;13.380;2024-03-08T04:46:17;31.10;;;12.35;;
69008;SDS011;56065;52.472;13.380;2024-03-08T04:48:42;33.45;;;12.30;;
69008;SDS011;56065;52.472;13.380;2024-03-08T04:51:08;35.97;;;13.00;;
69008;SDS011;56065;52.472;13.380;2024-03-08T04:53:34;29.77;;;12.55;;
69008;SDS011;56065;52.472;13.380;2024-03-08T04:55:59;38.37;;;13.40;;
69008;SDS011;56065;52.472;13.380;2024-03-08T04:58:25;35.50;;;12.47;;
69008;SDS011;56065;52.472;13.380;2024-03-08T05:00:50;33.20;;;11.97;;
69008;SDS011;56065;52.472;13.380;2024-03-08T05:03:16;30.17;;;11.33;;
69008;SDS011;56065;52.472;13.380;2024-03-08T05:05:41;31.47;;;12.03;;
69008;SDS011;56065;52.472;13.380;2024-03-08T05:08:06;32.00;;;12.87;;
69008;SDS011;56065;52.472;13.380;2024-03-08T05:10:32;33.45;;;12.77;;
69008;SDS011;56065;52.472;13.380;2024-03-08T05:12:57;36.93;;;13.50;;
69008;SDS011;56065;52.472;13.380;2024-03-08T05:15:23;34.03;;;12.63;;
69008;SDS011;56065;52.472;13.380;2024-03-08T05:17:48;36.40;;;13.00;;
69008;SDS011;56065;52.472;13.380;2024-03-08T05:20:13;32.38;;;12.73;;
69008;SDS011;56065;52.472;13.380;2024-03-08T05:22:39;31.50;;;13.30;;
69008;SDS011;56065;52.472;13.380;2024-03-08T05:25:05;34.03;;;13.48;;
69008;SDS011;56065;52.472;13.380;2024-03-08T05:27:33;37.63;;;14.13;;
69008;SDS011;56065;52.472;13.380;2024-03-08T05:29:59;34.78;;;13.02;;
69008;SDS011;56065;52.472;13.380;2024-03-08T05:32:24;34.13;;;12.87;;
69008;SDS011;56065;52.472;13.380;2024-03-08T05:34:49;37.37;;;13.80;;
69008;SDS011;56065;52.472;13.380;2024-03-08T05:37:15;31.92;;;11.63;;
69008;SDS011;56065;52.472;13.380;2024-03-08T05:39:40;37.27;;;12.23;;
69008;SDS011;56065;52.472;13.380;2024-03-08T05:42:06;34.20;;;13.43;;
69008;SDS011;56065;52.472;13.380;2024-03-08T05:44:33;33.50;;;12.73;;
69008;SDS011;56065;52.472;13.380;2024-03-08T05:46:59;36.10;;;12.77;;
69008;SDS011;56065;52.472;13.380;2024-03-08T05:49:24;37.07;;;13.73;;
69008;SDS011;56065;52.472;13.380;2024-03-08T05:51:50;34.95;;;12.95;;
69008;SDS011;56065;52.472;13.380;2024-03-08T05:54:16;40.63;;;12.82;;
69008;SDS011;56065;52.472;13.380;2024-03-08T05:56:42;34.22;;;13.65;;
69008;SDS011;56065;52.472;13.380;2024-03-08T05:59:08;37.08;;;13.38;;
69008;SDS011;56065;52.472;13.380;2024-03-08T06:01:34;36.63;;;13.60;;
69008;SDS011;56065;52.472;13.380;2024-03-08T06:04:01;34.28;;;12.80;;
69008;SDS011;56065;52.472;13.380;2024-03-08T06:06:27;39.85;;;14.60;;
69008;SDS011;56065;52.472;13.380;2024-03-08T06:08:52;31.40;;;12.40;;
69008;SDS011;56065;52.472;13.380;2024-03-08T06:11:19;36.10;;;13.35;;
69008;SDS011;56065;52.472;13.380;2024-03-08T06:13:45;38.35;;;12.68;;
69008;SDS011;56065;52.472;13.380;2024-03-08T06:16:11;35.13;;;13.63;;
69008;SDS011;56065;52.472;13.380;2024-03-08T06:18:37;34.78;;;12.57;;
69008;SDS011;56065;52.472;13.380;2024-03-08T06:21:05;35.00;;;13.37;;
69008;SDS011;56065;52.472;13.380;2024-03-08T06:23:31;33.45;;;12.77;;
69008;SDS011;56065;52.472;13.380;2024-03-08T06:25:57;31.55;;;12.70;;
69008;SDS011;56065;52.472;13.380;2024-03-08T06:28:22;35.03;;;13.43;;
69008;SDS011;56065;52.472;13.380;2024-03-08T06:30:48;36.73;;;13.43;;
69008;SDS011;56065;52.472;13.380;2024-03-08T06:33:13;29.63;;;11.90;;
69008;SDS011;56065;52.472;13.380;2024-03-08T06:35:38;29.23;;;13.03;;
69008;SDS011;56065;52.472;13.380;2024-03-08T06:38:04;36.43;;;12.97;;
69008;SDS011;56065;52.472;13.380;2024-03-08T06:40:29;28.38;;;11.88;;
69008;SDS011;56065;52.472;13.380;2024-03-08T06:42:55;29.20;;;12.90;;
69008;SDS011;56065;52.472;13.380;2024-03-08T06:45:20;37.10;;;13.27;;
69008;SDS011;56065;52.472;13.380;2024-03-08T06:47:46;33.17;;;14.07;;
69008;SDS011;56065;52.472;13.380;2024-03-08T06:50:12;31.35;;;13.38;;
69008;SDS011;56065;52.472;13.380;2024-03-08T06:52:40;32.95;;;13.40;;
69008;SDS011;56065;52.472;13.380;2024-03-08T06:55:06;29.77;;;12.00;;
69008;SDS011;56065;52.472;13.380;2024-03-08T06:57:31;29.65;;;12.35;;
69008;SDS011;56065;52.472;13.380;2024-03-08T06:59:57;30.30;;;12.67;;
69008;SDS011;56065;52.472;13.380;2024-03-08T07:02:22;31.13;;;12.77;;
69008;SDS011;56065;52.472;13.380;2024-03-08T07:04:49;32.80;;;12.93;;
69008;SDS011;56065;52.472;13.380;2024-03-08T07:07:15;27.52;;;12.43;;
69008;SDS011;56065;52.472;13.380;2024-03-08T07:09:40;29.80;;;13.43;;
69008;SDS011;56065;52.472;13.380;2024-03-08T07:12:07;28.95;;;13.43;;
69008;SDS011;56065;52.472;13.380;2024-03-08T07:14:33;29.87;;;12.83;;
69008;SDS011;56065;52.472;13.380;2024-03-08T07:16:58;29.70;;;12.67;;
69008;SDS011;56065;52.472;13.380;2024-03-08T07:19:23;33.03;;;12.90;;
69008;SDS011;56065;52.472;13.380;2024-03-08T07:21:49;29.03;;;12.23;;
69008;SDS011;56065;52.472;13.380;2024-03-08T07:24:14;30.30;;;13.10;;
69008;SDS011;56065;52.472;13.380;2024-03-08T07:26:42;28.52;;;12.57;;
69008;SDS011;56065;52.472;13.380;2024-03-08T07:29:08;32.88;;;13.60;;
69008;SDS011;56065;52.472;13.380;2024-03-08T07:31:34;27.70;;;12.83;;
69008;SDS011;56065;52.472;13.380;2024-03-08T07:34:02;30.35;;;13.57;;
69008;SDS011;56065;52.472;13.380;2024-03-08T07:36:28;31.50;;;14.02;;
69008;SDS011;56065;52.472;13.380;2024-03-08T07:38:53;34.40;;;13.57;;
69008;SDS011;56065;52.472;13.380;2024-03-08T07:41:19;31.50;;;13.80;;
69008;SDS011;56065;52.472;13.380;2024-03-08T07:43:45;27.83;;;12.88;;
69008;SDS011;56065;52.472;13.380;2024-03-08T07:46:10;32.10;;;13.57;;
69008;SDS011;56065;52.472;13.380;2024-03-08T07:48:35;35.63;;;13.87;;
69008;SDS011;56065;52.472;13.380;2024-03-08T07:51:01;33.78;;;14.70;;
69008;SDS011;56065;52.472;13.380;2024-03-08T07:53:28;29.98;;;12.88;;
69008;SDS011;56065;52.472;13.380;2024-03-08T07:55:53;27.37;;;12.77;;
69008;SDS011;56065;52.472;13.380;2024-03-08T07:58:19;30.83;;;13.53;;
69008;SDS011;56065;52.472;13.380;2024-03-08T08:00:44;32.27;;;13.97;;
69008;SDS011;56065;52.472;13.380;2024-03-08T08:03:09;32.70;;;13.57;;
69008;SDS011;56065;52.472;13.380;2024-03-08T08:05:35;29.83;;;13.43;;
69008;SDS011;56065;52.472;13.380;2024-03-08T08:08:03;34.83;;;13.47;;
69008;SDS011;56065;52.472;13.380;2024-03-08T08:10:32;27.30;;;12.65;;
69008;SDS011;56065;52.472;13.380;2024-03-08T08:12:58;26.43;;;11.27;;
69008;SDS011;56065;52.472;13.380;2024-03-08T08:15:24;33.47;;;12.98;;
69008;SDS011;56065;52.472;13.380;2024-03-08T08:17:49;30.40;;;12.77;;
69008;SDS011;56065;52.472;13.380;2024-03-08T08:20:14;26.53;;;11.57;;
69008;SDS011;56065;52.472;13.380;2024-03-08T08:22:40;25.60;;;12.00;;
69008;SDS011;56065;52.472;13.380;2024-03-08T08:25:08;26.52;;;11.68;;
69008;SDS011;56065;52.472;13.380;2024-03-08T08:27:36;26.92;;;12.05;;
69008;SDS011;56065;52.472;13.380;2024-03-08T08:30:02;28.37;;;12.07;;
69008;SDS011;56065;52.472;13.380;2024-03-08T08:32:33;27.48;;;12.10;;
69008;SDS011;56065;52.472;13.380;2024-03-08T08:35:00;26.07;;;12.17;;
69008;SDS011;56065;52.472;13.380;2024-03-08T08:37:25;28.88;;;12.93;;
69008;SDS011;56065;52.472;13.380;2024-03-08T08:39:50;27.00;;;12.07;;
69008;SDS011;56065;52.472;13.380;2024-03-08T08:42:16;27.87;;;13.17;;
69008;SDS011;56065;52.472;13.380;2024-03-08T08:44:42;28.75;;;11.95;;
69008;SDS011;56065;52.472;13.380;2024-03-08T08:47:08;25.53;;;12.37;;
69008;SDS011;56065;52.472;13.380;2024-03-08T08:49:33;25.77;;;11.93;;
69008;SDS011;56065;52.472;13.380;2024-03-08T08:51:58;24.20;;;11.50;;
69008;SDS011;56065;52.472;13.380;2024-03-08T08:54:24;23.60;;;11.17;;
69008;SDS011;56065;52.472;13.380;2024-03-08T08:56:50;28.75;;;12.93;;
69008;SDS011;56065;52.472;13.380;2024-03-08T08:59:15;25.80;;;12.50;;
69008;SDS011;56065;52.472;13.380;2024-03-08T09:01:44;24.40;;;12.50;;
69008;SDS011;56065;52.472;13.380;2024-03-08T09:04:12;23.42;;;11.35;;
69008;SDS011;56065;52.472;13.380;2024-03-08T09:06:37;27.37;;;12.27;;
69008;SDS011;56065;52.472;13.380;2024-03-08T09:09:02;28.10;;;12.47;;
69008;SDS011;56065;52.472;13.380;2024-03-08T09:11:29;24.33;;;11.63;;
69008;SDS011;56065;52.472;13.380;2024-03-08T09:13:54;28.00;;;13.18;;
69008;SDS011;56065;52.472;13.380;2024-03-08T09:16:20;26.90;;;13.57;;
69008;SDS011;56065;52.472;13.380;2024-03-08T09:18:45;24.50;;;12.70;;
69008;SDS011;56065;52.472;13.380;2024-03-08T09:21:10;26.03;;;12.90;;
69008;SDS011;56065;52.472;13.380;2024-03-08T09:23:36;23.67;;;12.07;;
69008;SDS011;56065;52.472;13.380;2024-03-08T09:26:01;28.42;;;12.43;;
69008;SDS011;56065;52.472;13.380;2024-03-08T09:28:28;24.45;;;12.20;;
69008;SDS011;56065;52.472;13.380;2024-03-08T09:30:54;23.33;;;10.87;;
69008;SDS011;56065;52.472;13.380;2024-03-08T09:33:20;24.17;;;12.37;;
69008;SDS011;56065;52.472;13.380;2024-03-08T09:35:46;26.17;;;11.67;;
69008;SDS011;56065;52.472;13.380;2024-03-08T09:38:12;27.48;;;12.27;;
69008;SDS011;56065;52.472;13.380;2024-03-08T09:40:38;24.67;;;11.32;;
69008;SDS011;56065;52.472;13.380;2024-03-08T09:43:06;23.60;;;11.38;;
69008;SDS011;56065;52.472;13.380;2024-03-08T09:45:34;25.00;;;11.43;;
69008;SDS011;56065;52.472;13.380;2024-03-08T09:48:01;23.25;;;10.45;;
69008;SDS011;56065;52.472;13.380;2024-03-08T09:50:27;23.50;;;10.77;;
69008;SDS011;56065;52.472;13.380;2024-03-08T09:52:54;23.95;;;11.00;;
69008;SDS011;56065;52.472;13.380;2024-03-08T09:55:22;23.10;;;10.80;;
69008;SDS011;56065;52.472;13.380;2024-03-08T09:57:47;24.13;;;11.10;;
69008;SDS011;56065;52.472;13.380;2024-03-08T10:00:33;22.40;;;10.40;;
69008;SDS011;56065;52.472;13.380;2024-03-08T10:03:02;32.30;;;14.73;;
69008;SDS011;56065;52.472;13.380;2024-03-08T10:05:28;24.92;;;12.23;;
69008;SDS011;56065;52.472;13.380;2024-03-08T10:07:55;21.30;;;10.88;;
69008;SDS011;56065;52.472;13.380;2024-03-08T10:10:20;24.67;;;10.37;;
69008;SDS011;56065;52.472;13.380;2024-03-08T10:12:46;21.17;;;9.95;;
69008;SDS011;56065;52.472;13.380;2024-03-08T10:15:14;25.10;;;12.00;;
69008;SDS011;56065;52.472;13.380;2024-03-08T10:17:41;28.40;;;11.80;;
69008;SDS011;56065;52.472;13.380;2024-03-08T10:20:14;20.98;;;10.07;;
69008;SDS011;56065;52.472;13.380;2024-03-08T10:22:41;23.73;;;10.57;;
69008;SDS011;56065;52.472;13.380;2024-03-08T10:25:10;20.02;;;10.18;;
69008;SDS011;56065;52.472;13.380;2024-03-08T10:27:39;18.02;;;8.40;;
69008;SDS011;56065;52.472;13.380;2024-03-08T10:30:06;18.30;;;8.83;;
69008;SDS011;56065;52.472;13.380;2024-03-08T10:32:35;19.20;;;8.85;;
69008;SDS011;56065;52.472;13.380;2024-03-08T10:35:00;16.10;;;8.20;;
69008;SDS011;56065;52.472;13.380;2024-03-08T10:37:26;18.83;;;8.82;;
69008;SDS011;56065;52.472;13.380;2024-03-08T10:40:02;19.05;;;8.45;;
69008;SDS011;56065;52.472;13.380;2024-03-08T10:42:41;20.57;;;9.37;;
69008;SDS011;56065;52.472;13.380;2024-03-08T10:51:02;19.13;;;8.50;;
69008;SDS011;56065;52.472;13.380;2024-03-08T10:53:28;18.43;;;8.33;;
69008;SDS011;56065;52.472;13.380;2024-03-08T10:55:55;16.65;;;8.45;;
69008;SDS011;56065;52.472;13.380;2024-03-08T10:58:22;19.17;;;8.43;;
69008;SDS011;56065;52.472;13.380;2024-03-08T11:00:56;19.65;;;8.25;;
69008;SDS011;56065;52.472;13.380;2024-03-08T11:06:07;17.37;;;7.60;;
69008;SDS011;56065;52.472;13.380;2024-03-08T11:08:35;16.88;;;8.20;;
69008;SDS011;56065;52.472;13.380;2024-03-08T11:11:01;16.65;;;8.27;;
69008;SDS011;56065;52.472;13.380;2024-03-08T11:13:40;18.00;;;8.18;;
69008;SDS011;56065;52.472;13.380;2024-03-08T11:16:12;15.20;;;7.57;;
69008;SDS011;56065;52.472;13.380;2024-03-08T11:18:58;18.88;;;8.60;;
69008;SDS011;56065;52.472;13.380;2024-03-08T11:21:29;17.60;;;8.98;;
69008;SDS011;56065;52.472;13.380;2024-03-08T11:24:06;21.23;;;8.20;;
69008;SDS011;56065;52.472;13.380;2024-03-08T11:26:33;17.95;;;8.45;;
69008;SDS011;56065;52.472;13.380;2024-03-08T11:32:10;15.65;;;7.57;;
69008;SDS011;56065;52.472;13.380;2024-03-08T11:34:37;17.75;;;8.48;;
69008;SDS011;56065;52.472;13.380;2024-03-08T11:37:05;18.58;;;8.98;;
69008;SDS011;56065;52.472;13.380;2024-03-08T11:39:37;16.98;;;9.25;;
69008;SDS011;56065;52.472;13.380;2024-03-08T11:42:04;32.83;;;15.27;;
69008;SDS011;56065;52.472;13.380;2024-03-08T11:44:30;16.05;;;8.48;;
69008;SDS011;56065;52.472;13.380;2024-03-08T11:46:56;22.55;;;7.72;;
69008;SDS011;56065;52.472;13.380;2024-03-08T11:49:22;16.27;;;8.53;;
69008;SDS011;56065;52.472;13.380;2024-03-08T11:51:50;17.20;;;8.45;;
69008;SDS011;56065;52.472;13.380;2024-03-08T11:54:17;19.55;;;8.65;;
69008;SDS011;56065;52.472;13.380;2024-03-08T11:56:42;16.03;;;8.70;;
69008;SDS011;56065;52.472;13.380;2024-03-08T11:59:11;17.53;;;8.40;;
69008;SDS011;56065;52.472;13.380;2024-03-08T12:01:37;17.40;;;8.60;;
69008;SDS011;56065;52.472;13.380;2024-03-08T12:04:03;14.30;;;7.60;;
69008;SDS011;56065;52.472;13.380;2024-03-08T12:06:37;16.27;;;7.45;;
69008;SDS011;56065;52.472;13.380;2024-03-08T12:09:10;16.00;;;7.35;;
69008;SDS011;56065;52.472;13.380;2024-03-08T12:11:36;15.82;;;7.38;;
69008;SDS011;56065;52.472;13.380;2024-03-08T12:14:02;15.37;;;7.60;;
69008;SDS011;56065;52.472;13.380;2024-03-08T12:16:28;17.27;;;7.38;;
69008;SDS011;56065;52.472;13.380;2024-03-08T12:18:54;15.30;;;7.47;;
69008;SDS011;56065;52.472;13.380;2024-03-08T12:21:19;16.42;;;9.20;;
69008;SDS011;56065;52.472;13.380;2024-03-08T12:23:47;18.15;;;11.23;;
69008;SDS011;56065;52.472;13.380;2024-03-08T12:26:16;20.73;;;12.83;;
69008;SDS011;56065;52.472;13.380;2024-03-08T12:28:44;15.48;;;8.93;;
69008;SDS011;56065;52.472;13.380;2024-03-08T12:31:13;15.93;;;8.52;;
69008;SDS011;56065;52.472;13.380;2024-03-08T12:33:51;17.88;;;9.23;;
69008;SDS011;56065;52.472;13.380;2024-03-08T12:36:18;18.20;;;9.60;;
69008;SDS011;56065;52.472;13.380;2024-03-08T12:38:47;18.63;;;9.30;;
69008;SDS011;56065;52.472;13.380;2024-03-08T12:41:13;17.42;;;8.60;;
69008;SDS011;56065;52.472;13.380;2024-03-08T12:43:43;18.73;;;9.30;;
69008;SDS011;56065;52.472;13.380;2024-03-08T12:46:13;17.35;;;8.48;;
69008;SDS011;56065;52.472;13.380;2024-03-08T12:48:45;24.20;;;12.43;;
69008;SDS011;56065;52.472;13.380;2024-03-08T12:51:14;26.83;;;15.30;;
69008;SDS011;56065;52.472;13.380;2024-03-08T12:53:41;22.92;;;12.80;;
69008;SDS011;56065;52.472;13.380;2024-03-08T12:56:10;32.33;;;19.08;;
69008;SDS011;56065;52.472;13.380;2024-03-08T12:58:36;32.85;;;20.05;;
69008;SDS011;56065;52.472;13.380;2024-03-08T13:01:03;34.53;;;18.75;;
69008;SDS011;56065;52.472;13.380;2024-03-08T13:03:33;21.93;;;12.73;;
69008;SDS011;56065;52.472;13.380;2024-03-08T13:06:00;26.48;;;14.38;;
69008;SDS011;56065;52.472;13.380;2024-03-08T13:08:27;21.63;;;10.40;;
69008;SDS011;56065;52.472;13.380;2024-03-08T13:10:54;24.00;;;12.27;;
69008;SDS011;56065;52.472;13.380;2024-03-08T13:13:20;19.33;;;10.70;;
69008;SDS011;56065;52.472;13.380;2024-03-08T13:15:45;22.67;;;11.40;;
69008;SDS011;56065;52.472;13.380;2024-03-08T13:18:10;24.97;;;13.03;;
69008;SDS011;56065;52.472;13.380;2024-03-08T13:20:36;20.30;;;11.85;;
69008;SDS011;56065;52.472;13.380;2024-03-08T13:23:03;24.63;;;13.77;;
69008;SDS011;56065;52.472;13.380;2024-03-08T13:25:30;30.52;;;16.35;;
69008;SDS011;56065;52.472;13.380;2024-03-08T13:27:56;35.05;;;20.58;;
69008;SDS011;56065;52.472;13.380;2024-03-08T13:30:24;19.10;;;9.20;;
69008;SDS011;56065;52.472;13.380;2024-03-08T13:32:54;20.25;;;11.07;;
69008;SDS011;56065;52.472;13.380;2024-03-08T13:35:19;36.33;;;19.80;;
69008;SDS011;56065;52.472;13.380;2024-03-08T13:37:49;26.88;;;14.40;;
69008;SDS011;56065;52.472;13.380;2024-03-08T13:40:16;32.00;;;16.48;;
69008;SDS011;56065;52.472;13.380;2024-03-08T13:42:44;21.67;;;11.60;;
69008;SDS011;56065;52.472;13.380;2024-03-08T13:45:16;19.98;;;10.38;;
69008;SDS011;56065;52.472;13.380;2024-03-08T13:47:49;25.10;;;13.23;;
69008;SDS011;56065;52.472;13.380;2024-03-08T13:50:16;19.80;;;10.13;;
69008;SDS011;56065;52.472;13.380;2024-03-08T13:52:46;23.30;;;11.32;;
69008;SDS011;56065;52.472;13.380;2024-03-08T13:55:18;19.83;;;9.43;;
69008;SDS011;56065;52.472;13.380;2024-03-08T13:57:44;27.10;;;13.27;;
69008;SDS011;56065;52.472;13.380;2024-03-08T14:00:10;43.53;;;20.48;;
69008;SDS011;56065;52.472;13.380;2024-03-08T14:02:37;16.75;;;7.72;;
69008;SDS011;56065;52.472;13.380;2024-03-08T14:05:04;30.58;;;13.70;;
69008;SDS011;56065;52.472;13.380;2024-03-08T14:07:29;22.00;;;10.90;;
69008;SDS011;56065;52.472;13.380;2024-03-08T14:09:54;48.17;;;23.97;;
69008;SDS011;56065;52.472;13.380;2024-03-08T14:12:20;23.53;;;11.27;;
69008;SDS011;56065;52.472;13.380;2024-03-08T14:14:45;30.00;;;13.90;;
69008;SDS011;56065;52.472;13.380;2024-03-08T14:17:11;22.87;;;10.77;;
69008;SDS011;56065;52.472;13.380;2024-03-08T14:19:41;18.20;;;8.60;;
69008;SDS011;56065;52.472;13.380;2024-03-08T14:22:07;18.57;;;8.07;;